< < Back
Terminal Aerodrome Forecast


Current Version              Previous Versions:   1  2  3  4  5  6  7  8  9  

Terminal Aerodrome Forecast

161
FTUS42 KTAE 242300
TAFABY
TAF
KABY 242320Z 2500/2524 32005KT P6SM SKC=

Latest METAR

327
SAUS70 KWBC 251200 RRA
MTRABY
METAR KABY 251153Z 00000KT 10SM CLR 07/06 A3006 RMK AO2 SLP180 T00720056
10111 20067 53014


USA.gov is the U.S. government's official web portal to all federal, state and local government web resources and services.